createdAt,value
2022-08-18T00:01:36.168Z,20.85
2022-08-18T00:04:12.459Z,20.81
2022-08-18T00:07:03.843Z,20.79
2022-08-18T00:09:37.424Z,20.76
2022-08-18T00:12:15.317Z,20.74
2022-08-18T00:14:50.790Z,20.72
2022-08-18T00:17:25.060Z,20.69
2022-08-18T00:19:58.252Z,20.65
2022-08-18T00:22:31.392Z,20.60
2022-08-18T00:25:04.127Z,20.55
2022-08-18T00:27:37.952Z,20.52
2022-08-18T00:30:14.111Z,20.48
2022-08-18T00:32:51.559Z,20.47
2022-08-18T00:35:28.863Z,20.44
2022-08-18T00:38:04.376Z,20.46
2022-08-18T00:40:45.339Z,20.48
2022-08-18T00:43:21.082Z,20.49
2022-08-18T00:45:53.949Z,20.49
2022-08-18T00:48:26.412Z,20.49
2022-08-18T00:51:03.826Z,20.48
2022-08-18T00:53:41.335Z,20.46
2022-08-18T00:56:18.300Z,20.45
2022-08-18T00:58:59.117Z,20.43
2022-08-18T01:01:34.401Z,20.42
2022-08-18T01:04:11.500Z,20.41
2022-08-18T01:06:47.014Z,20.40
2022-08-18T01:09:20.513Z,20.37
2022-08-18T01:11:54.160Z,20.35
2022-08-18T01:14:27.790Z,20.33
2022-08-18T01:17:18.323Z,20.31
2022-08-18T01:20:10.120Z,20.27
2022-08-18T01:22:54.412Z,20.23
2022-08-18T01:25:46.918Z,20.22
2022-08-18T01:28:21.700Z,20.19
2022-08-18T01:30:58.406Z,20.15
2022-08-18T01:33:34.166Z,20.11
2022-08-18T01:36:13.450Z,20.07
2022-08-18T01:38:47.846Z,20.02
2022-08-18T01:41:29.753Z,20.01
2022-08-18T01:44:05.270Z,20.00
2022-08-18T01:46:38.976Z,19.99
2022-08-18T01:49:13.477Z,19.98
2022-08-18T01:51:46.521Z,19.99
2022-08-18T01:54:18.579Z,19.98
2022-08-18T01:56:53.547Z,19.99
2022-08-18T01:59:26.019Z,19.98
2022-08-18T02:02:01.248Z,19.98
2022-08-18T02:04:37.314Z,19.94
2022-08-18T02:07:12.317Z,19.94
2022-08-18T02:09:45.295Z,19.92
2022-08-18T02:12:18.700Z,19.90
2022-08-18T02:14:53.163Z,19.87
2022-08-18T02:17:25.203Z,19.85
2022-08-18T02:19:58.743Z,19.81
2022-08-18T02:22:33.213Z,19.82
2022-08-18T02:25:09.301Z,19.83
2022-08-18T02:27:41.542Z,19.84
2022-08-18T02:30:18.083Z,19.81
2022-08-18T02:32:50.302Z,19.81
2022-08-18T02:35:23.697Z,19.79
2022-08-18T02:37:56.342Z,19.80
2022-08-18T02:40:29.937Z,19.81
2022-08-18T02:43:09.402Z,19.79
2022-08-18T02:45:41.946Z,19.77
2022-08-18T02:48:14.461Z,19.76
2022-08-18T02:50:47.928Z,19.76
2022-08-18T02:53:23.495Z,19.76
2022-08-18T02:55:55.903Z,19.74
2022-08-18T02:58:33.222Z,19.73
2022-08-18T03:01:07.294Z,19.70
2022-08-18T03:03:39.380Z,19.69
2022-08-18T03:06:12.348Z,19.65
2022-08-18T03:08:49.434Z,19.62
2022-08-18T03:11:23.682Z,19.58
2022-08-18T03:13:56.610Z,19.56
2022-08-18T03:16:33.201Z,19.53
2022-08-18T03:19:05.498Z,19.51
2022-08-18T03:21:38.489Z,19.49
2022-08-18T03:24:14.967Z,19.49
2022-08-18T03:26:51.331Z,19.47
2022-08-18T03:29:27.955Z,19.44
2022-08-18T03:32:06.785Z,19.41
2022-08-18T03:34:40.328Z,19.39
2022-08-18T03:37:12.278Z,19.35
2022-08-18T03:39:45.624Z,19.34
2022-08-18T03:42:21.064Z,19.33
2022-08-18T03:44:53.956Z,19.32
2022-08-18T03:47:29.498Z,19.28
2022-08-18T03:50:03.109Z,19.26
2022-08-18T03:52:41.612Z,19.26
2022-08-18T03:55:15.216Z,19.27
2022-08-18T03:57:48.224Z,19.28
2022-08-18T04:00:21.953Z,19.30
2022-08-18T04:02:54.462Z,19.31
2022-08-18T04:05:27.063Z,19.30
2022-08-18T04:07:59.749Z,19.31
2022-08-18T04:10:32.348Z,19.38
2022-08-18T04:13:06.545Z,19.59
2022-08-18T04:15:39.852Z,19.80
2022-08-18T04:18:12.940Z,19.84
2022-08-18T04:20:59.898Z,19.84
2022-08-18T04:23:43.378Z,19.82
2022-08-18T04:26:19.606Z,19.82
2022-08-18T04:28:51.683Z,19.82
2022-08-18T04:31:26.515Z,19.86
2022-08-18T04:34:00.051Z,19.89
2022-08-18T04:36:35.711Z,19.94
2022-08-18T04:39:10.087Z,19.97
2022-08-18T04:41:44.485Z,20.03
2022-08-18T04:44:18.398Z,20.10
2022-08-18T04:46:53.598Z,20.17
2022-08-18T04:49:27.398Z,20.25
2022-08-18T04:52:27.018Z,20.33
2022-08-18T04:55:12.559Z,20.43
2022-08-18T04:57:45.709Z,20.51
2022-08-18T05:00:19.607Z,20.61
2022-08-18T05:02:54.630Z,20.72
2022-08-18T05:05:28.720Z,20.82
2022-08-18T05:08:02.636Z,20.92
2022-08-18T05:10:35.405Z,21.01
2022-08-18T05:13:07.905Z,21.11
2022-08-18T05:16:07.032Z,21.21
2022-08-18T05:18:41.718Z,21.35
2022-08-18T05:21:16.735Z,21.48
2022-08-18T05:23:51.234Z,21.62
2022-08-18T05:26:24.273Z,21.76
2022-08-18T05:29:18.186Z,21.89
2022-08-18T05:31:51.728Z,22.05
2022-08-18T05:34:24.774Z,22.19
2022-08-18T05:37:09.058Z,22.33
2022-08-18T05:39:47.345Z,22.48
2022-08-18T05:42:22.944Z,22.61
2022-08-18T05:44:57.175Z,22.74
2022-08-18T05:47:31.999Z,22.91
2022-08-18T05:50:10.556Z,23.08
2022-08-18T05:52:53.631Z,23.26
2022-08-18T05:55:48.930Z,23.47
2022-08-18T05:58:23.775Z,23.66
2022-08-18T06:01:10.390Z,23.84
2022-08-18T06:03:47.934Z,24.01
2022-08-18T06:06:23.338Z,24.16
2022-08-18T06:09:08.687Z,24.31
2022-08-18T06:11:41.340Z,24.46
2022-08-18T06:14:15.417Z,24.61
2022-08-18T06:16:57.246Z,24.70
2022-08-18T06:19:37.145Z,24.83
2022-08-18T06:22:20.273Z,24.97
2022-08-18T06:24:55.541Z,25.10
2022-08-18T06:27:35.645Z,25.18
2022-08-18T06:30:11.894Z,25.28
2022-08-18T06:32:58.007Z,25.35
2022-08-18T06:35:36.511Z,25.47
2022-08-18T06:38:38.819Z,25.59
2022-08-18T06:41:41.465Z,25.69
2022-08-18T06:44:18.065Z,25.72
2022-08-18T06:46:54.449Z,25.79
2022-08-18T06:49:36.952Z,25.88
2022-08-18T06:52:29.330Z,25.98
2022-08-18T06:55:05.578Z,26.09
2022-08-18T06:57:40.977Z,26.15
2022-08-18T07:00:26.325Z,26.17
2022-08-18T07:03:14.701Z,26.20
2022-08-18T07:06:02.431Z,26.27
2022-08-18T07:08:37.482Z,26.41
2022-08-18T07:11:22.052Z,26.51
2022-08-18T07:14:15.042Z,26.58
2022-08-18T07:18:03.123Z,26.65
2022-08-18T07:21:01.281Z,26.76
2022-08-18T07:23:40.800Z,26.84
2022-08-18T07:26:18.067Z,26.91
2022-08-18T07:28:51.976Z,27.02
2022-08-18T07:31:40.180Z,27.12
2022-08-18T07:34:16.762Z,27.24
2022-08-18T07:36:55.138Z,27.35
2022-08-18T07:39:32.810Z,27.46
2022-08-18T07:42:14.489Z,27.52
2022-08-18T07:45:10.805Z,27.64
2022-08-18T07:48:34.956Z,27.73
2022-08-18T07:51:18.627Z,27.88
2022-08-18T07:54:44.998Z,27.99
2022-08-18T07:57:16.476Z,28.06
2022-08-18T08:00:10.482Z,28.07
2022-08-18T08:06:40.564Z,28.28
2022-08-18T08:09:41.189Z,28.38
2022-08-18T08:12:44.602Z,28.54
2022-08-18T08:15:58.290Z,28.70
2022-08-18T08:19:13.790Z,28.87
2022-08-18T08:22:33.881Z,28.94
2022-08-18T08:25:46.467Z,29.01
2022-08-18T08:28:37.117Z,29.15
2022-08-18T08:32:00.170Z,29.27
2022-08-18T08:41:05.655Z,29.49
2022-08-18T08:43:44.223Z,29.56
2022-08-18T08:49:55.078Z,29.60
2022-08-18T08:53:27.156Z,29.61
2022-08-18T09:02:49.650Z,29.93
2022-08-18T09:05:25.706Z,29.88
2022-08-18T09:11:52.358Z,29.95
2022-08-18T09:18:44.206Z,30.03
2022-08-18T09:21:50.235Z,30.08
2022-08-18T09:28:24.124Z,30.11
2022-08-18T09:31:20.646Z,30.12
2022-08-18T09:34:22.076Z,30.09
2022-08-18T09:37:14.210Z,30.19
2022-08-18T09:44:21.155Z,30.30
2022-08-18T09:47:33.571Z,30.26
2022-08-18T09:50:39.236Z,30.25
2022-08-18T10:07:43.980Z,30.64
2022-08-18T10:11:01.086Z,30.77
2022-08-18T10:14:45.110Z,30.76
2022-08-18T10:17:58.037Z,30.81
2022-08-18T10:20:46.567Z,30.83
2022-08-18T10:24:08.052Z,30.75
2022-08-18T10:27:30.564Z,30.82
2022-08-18T10:30:57.373Z,30.95
2022-08-18T10:44:27.672Z,31.28
2022-08-18T10:47:35.036Z,31.36
2022-08-18T10:50:38.012Z,31.45
2022-08-18T10:54:18.361Z,31.43
2022-08-18T10:57:24.510Z,31.24
2022-08-18T11:00:10.019Z,31.18
2022-08-18T11:07:10.584Z,31.36
2022-08-18T11:10:04.542Z,31.29
2022-08-18T11:16:53.904Z,31.31
2022-08-18T11:19:32.739Z,31.42
2022-08-18T11:25:57.400Z,31.58
2022-08-18T11:28:40.792Z,31.78
2022-08-18T11:31:17.708Z,31.91
2022-08-18T11:33:58.032Z,31.86
2022-08-18T11:41:08.886Z,31.83
2022-08-18T11:44:06.737Z,31.98
2022-08-18T11:46:46.408Z,31.89
2022-08-18T11:49:37.665Z,32.09
2022-08-18T11:52:29.495Z,32.35
2022-08-18T11:55:53.532Z,32.63
2022-08-18T11:58:51.689Z,32.97
2022-08-18T12:01:56.105Z,33.10
2022-08-18T12:07:57.830Z,33.57
2022-08-18T12:10:31.970Z,33.77
2022-08-18T12:13:13.118Z,33.75
2022-08-18T12:15:47.488Z,33.76
2022-08-18T12:18:28.944Z,33.93
2022-08-18T12:21:03.279Z,34.22
2022-08-18T12:23:39.124Z,34.30
2022-08-18T12:26:38.132Z,34.29
2022-08-18T12:29:12.781Z,34.49
2022-08-18T12:31:52.775Z,34.67
2022-08-18T12:34:27.315Z,34.85
2022-08-18T12:37:02.629Z,35.06
2022-08-18T12:39:44.525Z,35.05
2022-08-18T12:42:19.334Z,35.02
2022-08-18T12:44:53.243Z,35.06
2022-08-18T12:47:31.193Z,35.22
2022-08-18T12:50:04.496Z,35.53
2022-08-18T12:52:37.951Z,35.73
2022-08-18T12:58:08.223Z,36.20
2022-08-18T13:00:43.429Z,36.26
2022-08-18T13:03:16.957Z,36.32
2022-08-18T13:05:50.820Z,36.27
2022-08-18T13:08:30.615Z,36.39
2022-08-18T13:11:15.374Z,36.55
2022-08-18T13:13:56.173Z,36.68
2022-08-18T13:16:38.634Z,36.58
2022-08-18T13:19:13.293Z,36.90
2022-08-18T13:21:46.142Z,37.17
2022-08-18T13:24:21.979Z,37.07
2022-08-18T13:26:57.109Z,36.96
2022-08-18T13:29:30.145Z,37.08
2022-08-18T13:32:09.456Z,36.99
2022-08-18T13:34:42.639Z,36.96
2022-08-18T13:37:17.568Z,37.10
2022-08-18T13:39:53.365Z,37.29
2022-08-18T13:42:31.260Z,37.55
2022-08-18T13:45:25.517Z,37.89
2022-08-18T13:47:58.609Z,38.11
2022-08-18T13:50:30.735Z,38.34
2022-08-18T13:53:05.619Z,38.25
2022-08-18T13:55:39.274Z,38.21
2022-08-18T13:58:20.452Z,38.50
2022-08-18T14:00:54.865Z,38.76
2022-08-18T14:03:42.723Z,38.77
2022-08-18T14:06:23.627Z,38.80
2022-08-18T14:08:57.600Z,38.89
2022-08-18T14:11:33.307Z,38.75
2022-08-18T14:14:08.319Z,38.83
2022-08-18T14:16:42.411Z,38.59
2022-08-18T14:19:33.111Z,38.51
2022-08-18T14:22:26.432Z,38.62
2022-08-18T14:25:17.464Z,38.76
2022-08-18T14:27:57.236Z,38.81
2022-08-18T14:30:29.846Z,38.75
2022-08-18T14:33:02.697Z,38.70
2022-08-18T14:36:06.568Z,38.57
2022-08-18T14:38:30.298Z,38.63
2022-08-18T14:41:07.021Z,38.74
2022-08-18T14:44:00.422Z,38.84
2022-08-18T14:46:42.908Z,38.71
2022-08-18T14:50:00.607Z,38.77
2022-08-18T14:56:28.550Z,38.84
2022-08-18T14:59:29.502Z,38.53
2022-08-18T15:02:37.993Z,38.11
2022-08-18T15:05:19.764Z,37.88
2022-08-18T15:08:24.460Z,37.70
2022-08-18T15:11:25.382Z,37.66
2022-08-18T15:21:34.941Z,38.06
2022-08-18T15:24:37.650Z,37.90
2022-08-18T15:27:19.429Z,37.86
2022-08-18T15:29:57.907Z,37.75
2022-08-18T15:35:57.127Z,37.22
2022-08-18T15:38:30.299Z,37.26
2022-08-18T15:44:27.570Z,37.65
2022-08-18T15:47:03.957Z,37.82
2022-08-18T15:50:29.748Z,37.87
2022-08-18T15:53:09.199Z,38.09
2022-08-18T15:56:15.055Z,38.29
2022-08-18T15:58:52.336Z,38.28
2022-08-18T16:01:33.431Z,37.97
2022-08-18T16:04:11.663Z,37.82
2022-08-18T16:07:17.894Z,37.63
2022-08-18T16:10:53.243Z,37.10
2022-08-18T16:13:36.802Z,36.61
2022-08-18T16:17:01.791Z,36.20
2022-08-18T16:19:43.227Z,35.70
2022-08-18T16:22:18.939Z,35.04
2022-08-18T16:29:33.491Z,34.32
2022-08-18T16:32:58.451Z,33.69
2022-08-18T16:35:35.604Z,33.21
2022-08-18T16:38:13.394Z,32.93
2022-08-18T16:40:52.349Z,32.63
2022-08-18T16:43:35.455Z,32.44
2022-08-18T16:49:34.696Z,31.97
2022-08-18T16:52:14.445Z,31.74
2022-08-18T16:54:58.042Z,31.53
2022-08-18T17:01:04.899Z,31.05
2022-08-18T17:04:03.364Z,30.77
2022-08-18T17:06:59.811Z,30.45
2022-08-18T17:09:35.221Z,30.14
2022-08-18T17:12:14.023Z,29.96
2022-08-18T17:14:51.969Z,29.82
2022-08-18T17:17:35.566Z,29.64
2022-08-18T17:20:22.014Z,29.48
2022-08-18T17:23:20.444Z,29.36
2022-08-18T17:25:54.979Z,29.24
2022-08-18T17:28:31.000Z,29.12
2022-08-18T17:31:16.379Z,28.96
2022-08-18T17:40:51.910Z,28.40
2022-08-18T17:43:30.024Z,28.27
2022-08-18T17:46:10.440Z,28.12
2022-08-18T17:48:54.901Z,27.99
2022-08-18T17:51:55.190Z,27.84
2022-08-18T17:58:31.171Z,27.51
2022-08-18T18:01:28.968Z,27.37
2022-08-18T18:04:25.944Z,27.24
2022-08-18T18:07:21.867Z,27.12
2022-08-18T18:11:04.847Z,27.02
2022-08-18T18:13:43.067Z,26.89
2022-08-18T18:16:41.631Z,26.81
2022-08-18T18:19:15.170Z,26.69
2022-08-18T18:22:17.686Z,26.61
2022-08-18T18:24:54.982Z,26.52
2022-08-18T18:30:39.324Z,26.35
2022-08-18T18:33:25.218Z,26.27
2022-08-18T18:36:25.278Z,26.18
2022-08-18T18:39:56.359Z,26.07
2022-08-18T18:43:03.242Z,25.98
2022-08-18T18:46:02.904Z,25.91
2022-08-18T18:48:52.465Z,25.83
2022-08-18T18:58:48.669Z,25.60
2022-08-18T19:01:58.548Z,25.55
2022-08-18T19:05:04.714Z,25.49
2022-08-18T19:08:00.764Z,25.43
2022-08-18T19:14:18.169Z,25.30
2022-08-18T19:16:58.672Z,25.26
2022-08-18T19:20:04.235Z,25.22
2022-08-18T19:22:47.637Z,25.17
2022-08-18T19:25:28.986Z,25.13
2022-08-18T19:28:09.149Z,25.09
2022-08-18T19:30:53.562Z,25.05
2022-08-18T19:33:37.133Z,25.01
2022-08-18T19:36:42.043Z,24.97
2022-08-18T19:39:44.947Z,24.94
2022-08-18T19:42:51.837Z,24.90
2022-08-18T19:45:55.561Z,24.83
2022-08-18T19:48:46.130Z,24.80
2022-08-18T19:51:34.218Z,24.76
2022-08-18T19:54:41.113Z,24.71
2022-08-18T19:57:29.814Z,24.67
2022-08-18T20:00:26.291Z,24.62
2022-08-18T20:03:24.053Z,24.57
2022-08-18T20:06:47.773Z,24.51
2022-08-18T20:10:06.805Z,24.45
2022-08-18T20:13:03.097Z,24.37
2022-08-18T20:16:04.227Z,24.32
2022-08-18T20:18:44.230Z,24.26
2022-08-18T20:25:47.356Z,24.14
2022-08-18T20:28:39.740Z,24.10
2022-08-18T20:31:19.160Z,24.05
2022-08-18T20:34:37.598Z,24.03
2022-08-18T20:37:13.368Z,23.98
2022-08-18T20:40:41.084Z,23.93
2022-08-18T20:43:30.509Z,23.87
2022-08-18T20:46:25.169Z,23.85
2022-08-18T20:49:47.670Z,23.79
2022-08-18T20:56:49.829Z,23.72
2022-08-18T21:02:59.676Z,23.67
2022-08-18T21:05:42.284Z,23.66
2022-08-18T21:08:38.133Z,23.65
2022-08-18T21:11:32.345Z,23.64
2022-08-18T21:14:34.275Z,23.62
2022-08-18T21:17:31.892Z,23.61
2022-08-18T21:20:51.844Z,23.61
2022-08-18T21:23:33.961Z,23.61
2022-08-18T21:26:14.880Z,23.61
2022-08-18T21:29:47.240Z,23.62
2022-08-18T21:33:05.650Z,23.62
2022-08-18T21:40:30.145Z,23.64
2022-08-18T21:43:13.888Z,23.64
2022-08-18T21:46:00.988Z,23.63
2022-08-18T21:48:41.584Z,23.61
2022-08-18T21:51:45.935Z,23.59
2022-08-18T21:58:17.010Z,23.51
2022-08-18T22:01:19.080Z,23.48
2022-08-18T22:04:03.556Z,23.44
2022-08-18T22:07:03.321Z,23.40
2022-08-18T22:10:19.595Z,23.36
2022-08-18T22:13:24.024Z,23.32
2022-08-18T22:15:59.452Z,23.28
2022-08-18T22:18:45.558Z,23.24
2022-08-18T22:25:05.909Z,23.19
2022-08-18T22:28:11.761Z,23.16
2022-08-18T22:30:51.914Z,23.14
2022-08-18T22:33:30.089Z,23.13
2022-08-18T22:36:09.272Z,23.10
2022-08-18T22:38:47.776Z,23.08
2022-08-18T22:41:28.067Z,23.06
2022-08-18T22:50:41.397Z,22.96
2022-08-18T22:53:49.930Z,22.92
2022-08-18T22:56:34.324Z,22.89
2022-08-18T22:59:33.087Z,22.86
2022-08-18T23:02:55.405Z,22.84
2022-08-18T23:05:58.411Z,22.81
2022-08-18T23:09:05.766Z,22.78
2022-08-18T23:11:42.890Z,22.76
2022-08-18T23:17:29.613Z,22.71
2022-08-18T23:20:17.636Z,22.68
2022-08-18T23:23:21.473Z,22.66
2022-08-18T23:25:59.523Z,22.64
2022-08-18T23:28:55.969Z,22.62
2022-08-18T23:32:29.596Z,22.61
2022-08-18T23:35:56.843Z,22.61
2022-08-18T23:38:57.806Z,22.60
2022-08-18T23:45:33.296Z,22.60
2022-08-18T23:48:31.677Z,22.59
2022-08-18T23:51:06.835Z,22.57
2022-08-18T23:54:27.121Z,22.56
2022-08-18T23:57:29.383Z,22.55
